createdAt,value
2017-05-05T00:00:53.908Z,25.87
2017-05-05T00:03:23.537Z,27.45
2017-05-05T00:05:53.076Z,27.55
2017-05-05T00:08:22.688Z,25.98
2017-05-05T00:10:53.029Z,26.98
2017-05-05T00:13:23.341Z,29.13
2017-05-05T00:15:53.613Z,27.37
2017-05-05T00:18:23.261Z,29.00
2017-05-05T00:20:52.813Z,29.65
2017-05-05T00:23:22.365Z,31.00
2017-05-05T00:25:52.216Z,26.82
2017-05-05T00:28:21.992Z,28.70
2017-05-05T00:30:51.540Z,28.62
2017-05-05T00:33:21.208Z,28.40
2017-05-05T00:35:50.760Z,30.88
2017-05-05T00:38:20.616Z,31.12
2017-05-05T00:40:50.156Z,32.57
2017-05-05T00:43:20.432Z,30.53
2017-05-05T00:45:49.976Z,29.12
2017-05-05T00:48:20.268Z,30.25
2017-05-05T00:50:49.809Z,28.93
2017-05-05T00:53:19.502Z,30.52
2017-05-05T00:55:49.024Z,32.22
2017-05-05T00:58:19.516Z,33.95
2017-05-05T01:00:49.048Z,34.67
2017-05-05T01:03:19.355Z,31.52
2017-05-05T01:05:48.920Z,31.85
2017-05-05T01:08:18.468Z,32.68
2017-05-05T01:10:48.072Z,31.75
2017-05-05T01:13:17.619Z,31.55
2017-05-05T01:15:47.155Z,33.07
2017-05-05T01:18:16.695Z,30.02
2017-05-05T01:20:47.012Z,30.25
2017-05-05T01:23:16.560Z,30.13
2017-05-05T01:25:46.128Z,31.28
2017-05-05T01:28:16.647Z,31.20
2017-05-05T01:30:46.224Z,30.95
2017-05-05T01:33:15.871Z,30.57
2017-05-05T01:35:46.173Z,29.67
2017-05-05T01:38:15.710Z,29.45
2017-05-05T01:40:46.087Z,30.35
2017-05-05T01:43:15.627Z,31.20
2017-05-05T01:45:45.199Z,31.95
2017-05-05T01:48:14.735Z,29.38
2017-05-05T01:50:44.343Z,29.75
2017-05-05T01:53:14.320Z,30.88
2017-05-05T01:55:43.855Z,30.78
2017-05-05T01:58:13.404Z,31.55
2017-05-05T02:00:42.943Z,30.33
2017-05-05T02:03:12.587Z,32.10
2017-05-05T02:05:42.871Z,31.15
2017-05-05T02:08:12.507Z,29.18
2017-05-05T02:10:42.074Z,29.73
2017-05-05T02:13:11.590Z,29.15
2017-05-05T02:15:41.426Z,29.58
2017-05-05T02:18:11.035Z,30.25
2017-05-05T02:20:40.636Z,29.70
2017-05-05T02:23:10.202Z,28.37
2017-05-05T02:25:39.838Z,26.65
2017-05-05T02:28:09.391Z,30.72
2017-05-05T02:30:38.959Z,28.77
2017-05-05T02:33:08.491Z,28.18
2017-05-05T02:35:38.991Z,28.30
2017-05-05T02:38:08.603Z,30.32
2017-05-05T02:40:38.299Z,30.18
2017-05-05T02:43:07.819Z,29.53
2017-05-05T02:45:37.368Z,28.90
2017-05-05T02:48:06.923Z,31.20
2017-05-05T02:50:36.470Z,30.03
2017-05-05T02:53:06.006Z,30.98
2017-05-05T02:55:35.566Z,28.32
2017-05-05T02:58:05.837Z,31.08
2017-05-05T03:00:35.381Z,29.82
2017-05-05T03:03:05.650Z,29.70
2017-05-05T03:05:35.213Z,29.53
2017-05-05T03:08:05.482Z,29.72
2017-05-05T03:10:35.266Z,31.17
2017-05-05T03:13:05.014Z,30.53
2017-05-05T03:15:34.550Z,32.23
2017-05-05T03:18:04.086Z,34.35
2017-05-05T03:20:33.614Z,30.42
2017-05-05T03:23:03.666Z,29.67
2017-05-05T03:25:33.218Z,31.33
2017-05-05T03:28:03.530Z,31.73
2017-05-05T03:30:33.105Z,30.78
2017-05-05T03:33:02.714Z,32.67
2017-05-05T03:35:32.262Z,32.75
2017-05-05T03:38:01.822Z,32.55
2017-05-05T03:40:31.426Z,31.33
2017-05-05T03:43:00.962Z,31.33
2017-05-05T03:45:31.366Z,33.45
2017-05-05T03:48:00.906Z,32.20
2017-05-05T03:50:30.441Z,31.07
2017-05-05T03:53:00.006Z,35.08
2017-05-05T03:55:29.577Z,33.10
2017-05-05T03:57:59.198Z,32.48
2017-05-05T04:00:29.474Z,30.73
2017-05-05T04:02:59.117Z,31.08
2017-05-05T04:05:28.725Z,30.83
2017-05-05T04:07:58.282Z,29.92
2017-05-05T04:10:27.813Z,32.20
2017-05-05T04:12:57.437Z,31.78
2017-05-05T04:15:26.981Z,30.15
2017-05-05T04:17:56.521Z,31.33
2017-05-05T04:20:26.645Z,33.27
2017-05-05T04:22:56.201Z,34.88
2017-05-05T04:25:25.749Z,31.87
2017-05-05T04:27:55.285Z,34.88
2017-05-05T04:30:25.209Z,30.42
2017-05-05T04:32:55.514Z,30.33
2017-05-05T04:35:25.050Z,30.77
2017-05-05T04:37:55.349Z,30.58
2017-05-05T04:40:24.974Z,29.37
2017-05-05T04:42:55.245Z,30.15
2017-05-05T04:45:24.777Z,31.03
2017-05-05T04:47:54.397Z,31.43
2017-05-05T04:50:23.939Z,29.38
2017-05-05T04:52:54.369Z,29.02
2017-05-05T04:55:23.901Z,30.62
2017-05-05T04:57:53.449Z,29.48
2017-05-05T05:00:22.997Z,31.18
2017-05-05T05:02:53.357Z,30.88
2017-05-05T05:05:22.905Z,29.95
2017-05-05T05:07:52.444Z,28.20
2017-05-05T05:10:22.077Z,31.58
2017-05-05T05:12:51.696Z,31.93
2017-05-05T05:15:22.016Z,30.15
2017-05-05T05:17:51.656Z,30.82
2017-05-05T05:20:21.268Z,29.13
2017-05-05T05:22:50.864Z,28.35
2017-05-05T05:25:21.200Z,27.75
2017-05-05T05:27:50.692Z,30.05
2017-05-05T05:30:20.364Z,31.42
2017-05-05T05:32:49.936Z,26.97
2017-05-05T05:35:19.980Z,29.05
2017-05-05T05:37:49.516Z,28.93
2017-05-05T05:40:19.904Z,29.50
2017-05-05T05:42:49.444Z,26.37
2017-05-05T05:45:19.744Z,28.00
2017-05-05T05:47:49.280Z,28.53
2017-05-05T05:50:18.875Z,27.97
2017-05-05T05:52:49.168Z,28.98
2017-05-05T05:55:18.800Z,27.50
2017-05-05T05:57:49.120Z,26.77
2017-05-05T06:00:19.452Z,26.28
2017-05-05T06:02:49.744Z,26.37
2017-05-05T06:05:19.276Z,28.38
2017-05-05T06:07:49.575Z,24.37
2017-05-05T06:10:19.116Z,23.45
2017-05-05T06:12:48.664Z,22.37
2017-05-05T06:15:18.223Z,23.73
2017-05-05T06:17:48.524Z,20.68
2017-05-05T06:20:18.208Z,21.53
2017-05-05T06:22:47.827Z,24.45
2017-05-05T06:25:17.352Z,21.60
2017-05-05T06:27:47.856Z,23.82
2017-05-05T06:30:17.403Z,19.90
2017-05-05T06:32:46.943Z,22.10
2017-05-05T06:35:16.483Z,20.63
2017-05-05T06:37:46.043Z,23.25
2017-05-05T06:40:15.583Z,21.25
2017-05-05T06:42:45.143Z,19.13
2017-05-05T06:45:14.795Z,20.63
2017-05-05T06:47:44.488Z,22.13
2017-05-05T06:50:14.043Z,20.42
2017-05-05T06:52:44.347Z,19.95
2017-05-05T06:55:14.895Z,21.70
2017-05-05T06:57:45.203Z,19.08
2017-05-05T07:00:14.743Z,19.20
2017-05-05T07:02:44.295Z,19.95
2017-05-05T07:05:14.044Z,19.58
2017-05-05T07:07:43.720Z,19.90
2017-05-05T07:10:13.295Z,21.57
2017-05-05T07:12:42.838Z,19.27
2017-05-05T07:15:12.399Z,19.82
2017-05-05T07:17:41.963Z,17.60
2017-05-05T07:20:11.503Z,17.53
2017-05-05T07:22:41.047Z,17.78
2017-05-05T07:25:10.582Z,16.62
2017-05-05T07:27:40.875Z,16.02
2017-05-05T07:30:10.427Z,17.30
2017-05-05T07:32:39.988Z,18.90
2017-05-05T07:35:09.526Z,17.75
2017-05-05T07:37:39.830Z,19.78
2017-05-05T07:40:10.107Z,18.67
2017-05-05T07:42:39.658Z,18.42
2017-05-05T07:45:09.939Z,18.55
2017-05-05T07:47:39.486Z,17.82
2017-05-05T07:50:09.767Z,19.23
2017-05-05T07:52:39.334Z,18.78
2017-05-05T07:55:08.904Z,17.83
2017-05-05T07:57:38.470Z,17.85
2017-05-05T08:00:08.022Z,18.00
2017-05-05T08:02:37.560Z,17.45
2017-05-05T08:05:07.330Z,17.27
2017-05-05T08:07:36.867Z,19.60
2017-05-05T08:10:07.466Z,18.43
2017-05-05T08:12:37.034Z,19.08
2017-05-05T08:15:06.674Z,18.45
2017-05-05T08:17:36.190Z,18.87
2017-05-05T08:20:05.770Z,17.73
2017-05-05T08:22:35.342Z,18.15
2017-05-05T08:25:04.882Z,18.72
2017-05-05T08:27:34.451Z,18.65
2017-05-05T08:30:04.227Z,17.83
2017-05-05T08:32:33.822Z,18.48
2017-05-05T08:35:03.333Z,17.75
2017-05-05T08:37:32.901Z,18.35
2017-05-05T08:40:02.430Z,20.90
2017-05-05T08:42:31.986Z,19.25
2017-05-05T08:45:01.522Z,21.78
2017-05-05T08:47:31.098Z,19.12
2017-05-05T08:50:00.653Z,19.38
2017-05-05T08:52:30.178Z,20.42
2017-05-05T08:55:00.485Z,18.48
2017-05-05T08:57:30.024Z,18.32
2017-05-05T09:00:00.338Z,19.30
2017-05-05T09:02:30.610Z,19.62
2017-05-05T09:05:00.162Z,20.88
2017-05-05T09:07:30.458Z,19.93
2017-05-05T09:09:59.997Z,18.82
2017-05-05T09:12:30.278Z,19.05
2017-05-05T09:14:59.830Z,18.62
2017-05-05T09:17:30.106Z,15.67
2017-05-05T09:19:59.679Z,17.03
2017-05-05T09:22:29.214Z,15.58
2017-05-05T09:24:58.762Z,14.55
2017-05-05T09:27:29.041Z,17.63
2017-05-05T09:29:58.582Z,15.38
2017-05-05T09:32:28.869Z,15.43
2017-05-05T09:34:58.425Z,14.48
2017-05-05T09:37:27.978Z,13.30
2017-05-05T09:39:57.533Z,13.08
2017-05-05T09:42:28.805Z,14.48
2017-05-05T09:44:58.366Z,13.12
2017-05-05T09:47:27.906Z,14.58
2017-05-05T09:49:57.457Z,14.08
2017-05-05T09:52:27.005Z,14.93
2017-05-05T09:54:56.554Z,14.63
2017-05-05T09:57:26.109Z,14.23
2017-05-05T09:59:55.663Z,13.70
2017-05-05T10:02:25.325Z,14.53
2017-05-05T10:04:54.990Z,15.38
2017-05-05T10:07:24.549Z,14.23
2017-05-05T10:09:54.098Z,14.80
2017-05-05T10:12:23.677Z,14.23
2017-05-05T10:14:53.225Z,13.90
2017-05-05T10:17:22.809Z,13.73
2017-05-05T10:19:52.357Z,13.72
2017-05-05T10:22:22.669Z,13.13
2017-05-05T10:24:52.965Z,13.67
2017-05-05T10:27:22.565Z,12.48
2017-05-05T10:29:52.101Z,13.42
2017-05-05T10:32:22.433Z,13.75
2017-05-05T10:34:52.725Z,13.33
2017-05-05T10:37:22.308Z,11.80
2017-05-05T10:39:51.854Z,12.50
2017-05-05T10:42:21.417Z,13.34
2017-05-05T10:44:50.965Z,13.32
2017-05-05T10:47:20.532Z,11.62
2017-05-05T10:49:50.109Z,13.30
2017-05-05T10:52:19.648Z,13.54
2017-05-05T10:54:49.204Z,12.60
2017-05-05T10:57:19.504Z,13.16
2017-05-05T10:59:49.056Z,12.98
2017-05-05T11:02:18.609Z,14.40
2017-05-05T11:04:48.158Z,11.70
2017-05-05T11:07:17.737Z,12.80
2017-05-05T11:09:48.028Z,11.34
2017-05-05T11:12:17.591Z,11.42
2017-05-05T11:14:47.873Z,12.50
2017-05-05T11:17:17.417Z,12.36
2017-05-05T11:19:46.977Z,11.65
2017-05-05T11:22:16.549Z,11.78
2017-05-05T11:24:46.652Z,13.10
2017-05-05T11:27:16.204Z,11.80
2017-05-05T11:29:45.760Z,12.86
2017-05-05T11:32:15.432Z,12.35
2017-05-05T11:34:44.992Z,11.75
2017-05-05T11:37:14.572Z,11.60
2017-05-05T11:39:44.131Z,11.46
2017-05-05T11:42:14.528Z,10.68
2017-05-05T11:44:44.064Z,10.04
2017-05-05T11:47:14.060Z,11.56
2017-05-05T11:49:43.619Z,12.42
2017-05-05T11:52:14.148Z,11.16
2017-05-05T11:54:44.452Z,10.46
2017-05-05T11:57:14.020Z,11.78
2017-05-05T11:59:43.571Z,10.46
2017-05-05T12:02:14.216Z,11.20
2017-05-05T12:04:44.500Z,11.20
2017-05-05T12:07:14.069Z,11.34
2017-05-05T12:09:43.636Z,9.82
2017-05-05T12:12:13.219Z,9.96
2017-05-05T12:14:42.765Z,11.70
2017-05-05T12:17:13.051Z,9.80
2017-05-05T12:19:42.596Z,9.14
2017-05-05T12:22:12.923Z,9.50
2017-05-05T12:24:43.216Z,9.62
2017-05-05T12:27:12.780Z,9.72
2017-05-05T12:29:42.315Z,9.14
2017-05-05T12:32:11.903Z,10.06
2017-05-05T12:34:41.451Z,9.00
2017-05-05T12:37:11.215Z,8.92
2017-05-05T12:39:40.875Z,9.08
2017-05-05T12:42:10.423Z,9.62
2017-05-05T12:44:39.977Z,8.78
2017-05-05T12:47:09.527Z,9.18
2017-05-05T12:49:39.107Z,8.70
2017-05-05T12:52:09.379Z,7.58
2017-05-05T12:54:38.919Z,8.64
2017-05-05T12:57:08.451Z,8.88
2017-05-05T12:59:38.030Z,9.82
2017-05-05T13:02:07.559Z,8.46
2017-05-05T13:04:38.063Z,9.28
2017-05-05T13:07:07.638Z,9.28
2017-05-05T13:09:37.242Z,8.72
2017-05-05T13:12:06.803Z,7.58
2017-05-05T13:14:37.186Z,8.62
2017-05-05T13:17:06.683Z,8.20
2017-05-05T13:19:36.219Z,7.70
2017-05-05T13:22:06.519Z,8.78
2017-05-05T13:24:36.059Z,9.00
2017-05-05T13:27:06.338Z,8.06
2017-05-05T13:29:35.862Z,8.98
2017-05-05T13:32:05.422Z,9.12
2017-05-05T13:34:34.958Z,8.44
2017-05-05T13:37:04.506Z,8.32
2017-05-05T13:39:34.178Z,7.44
2017-05-05T13:42:03.678Z,9.14
2017-05-05T13:44:33.218Z,7.90
2017-05-05T13:47:03.486Z,7.06
2017-05-05T13:49:33.073Z,7.92
2017-05-05T13:52:02.602Z,7.08
2017-05-05T13:54:32.246Z,6.60
2017-05-05T13:57:02.533Z,6.72
2017-05-05T13:59:32.070Z,6.92
2017-05-05T14:02:01.618Z,6.86
2017-05-05T14:04:31.151Z,5.94
2017-05-05T14:07:00.697Z,7.46
2017-05-05T14:09:31.154Z,7.20
2017-05-05T14:12:00.746Z,8.74
2017-05-05T14:14:30.271Z,6.98
2017-05-05T14:16:59.830Z,5.96
2017-05-05T14:19:29.362Z,6.30
2017-05-05T14:21:58.897Z,7.32
2017-05-05T14:24:28.437Z,6.40
2017-05-05T14:26:57.981Z,7.28
2017-05-05T14:29:27.514Z,6.16
2017-05-05T14:31:57.070Z,6.30
2017-05-05T14:34:26.597Z,6.70
2017-05-05T14:36:56.135Z,6.92
2017-05-05T14:39:25.669Z,7.32
2017-05-05T14:41:55.249Z,7.30
2017-05-05T14:44:24.769Z,6.68
2017-05-05T14:46:54.329Z,6.44
2017-05-05T14:49:23.849Z,6.24
2017-05-05T14:51:53.458Z,5.68
2017-05-05T14:54:23.045Z,5.52
2017-05-05T14:56:52.573Z,6.78
2017-05-05T14:59:22.113Z,6.30
2017-05-05T15:01:51.649Z,6.46
2017-05-05T15:04:21.185Z,5.62
2017-05-05T15:06:50.713Z,6.18
2017-05-05T15:09:20.251Z,6.00
2017-05-05T15:11:50.716Z,5.60
2017-05-05T15:14:20.245Z,5.44
2017-05-05T15:16:49.789Z,6.12
2017-05-05T15:19:20.062Z,6.30
2017-05-05T15:21:49.592Z,6.50
2017-05-05T15:24:19.892Z,6.38
2017-05-05T15:26:49.433Z,5.32
2017-05-05T15:29:18.968Z,6.40
2017-05-05T15:31:48.509Z,5.60
2017-05-05T15:34:18.845Z,5.02
2017-05-05T15:36:48.381Z,5.70
2017-05-05T15:39:18.652Z,4.80
2017-05-05T15:41:48.189Z,5.28
2017-05-05T15:44:17.732Z,4.74
2017-05-05T15:46:47.301Z,5.02
2017-05-05T15:49:16.845Z,4.80
2017-05-05T15:51:46.381Z,4.28
2017-05-05T15:54:16.026Z,5.36
2017-05-05T15:56:45.565Z,4.84
2017-05-05T15:59:15.116Z,4.92
2017-05-05T16:01:44.644Z,5.54
2017-05-05T16:04:14.945Z,5.14
2017-05-05T16:06:44.476Z,4.94
2017-05-05T16:09:14.760Z,4.36
2017-05-05T16:11:44.696Z,5.02
2017-05-05T16:14:14.272Z,9.00
2017-05-05T16:16:43.823Z,8.58
2017-05-05T16:19:13.372Z,6.70
2017-05-05T16:21:42.916Z,5.70
2017-05-05T16:24:12.458Z,6.10
2017-05-05T16:26:42.792Z,6.00
2017-05-05T16:29:12.335Z,6.34
2017-05-05T16:31:41.871Z,5.96
2017-05-05T16:34:12.152Z,7.00
2017-05-05T16:36:41.700Z,7.04
2017-05-05T16:39:11.976Z,7.86
2017-05-05T16:41:41.528Z,6.90
2017-05-05T16:44:11.504Z,6.02
2017-05-05T16:46:41.044Z,6.42
2017-05-05T16:49:10.571Z,6.26
2017-05-05T16:51:40.136Z,6.38
2017-05-05T16:54:09.664Z,6.98
2017-05-05T16:56:39.948Z,6.66
2017-05-05T16:59:09.484Z,7.18
2017-05-05T17:01:39.048Z,6.72
2017-05-05T17:04:08.579Z,7.14
2017-05-05T17:06:38.108Z,6.58
2017-05-05T17:09:08.403Z,6.44
2017-05-05T17:11:37.931Z,6.78
2017-05-05T17:14:07.492Z,6.80
2017-05-05T17:16:37.095Z,6.80
2017-05-05T17:19:06.683Z,6.70
2017-05-05T17:21:36.235Z,6.80
2017-05-05T17:24:05.795Z,5.84
2017-05-05T17:26:35.331Z,5.90
2017-05-05T17:29:04.871Z,6.80
2017-05-05T17:31:35.143Z,7.64
2017-05-05T17:34:04.744Z,12.46
2017-05-05T17:36:34.383Z,7.72
2017-05-05T17:39:03.907Z,6.92
2017-05-05T17:41:33.439Z,7.40
2017-05-05T17:44:02.975Z,7.14
2017-05-05T17:46:32.539Z,6.88
2017-05-05T17:49:02.820Z,6.76
2017-05-05T17:51:32.379Z,6.38
2017-05-05T17:54:02.647Z,6.46
2017-05-05T17:56:32.187Z,7.52
2017-05-05T17:59:02.488Z,7.18
2017-05-05T18:01:32.026Z,6.96
2017-05-05T18:04:02.298Z,7.72
2017-05-05T18:06:31.851Z,7.98
2017-05-05T18:09:01.629Z,7.00
2017-05-05T18:11:31.160Z,7.10
2017-05-05T18:14:01.487Z,7.28
2017-05-05T18:16:31.763Z,7.18
2017-05-05T18:19:01.318Z,8.22
2017-05-05T18:21:30.863Z,9.33
2017-05-05T18:24:00.410Z,10.68
2017-05-05T18:26:30.699Z,10.92
2017-05-05T18:29:00.251Z,12.33
2017-05-05T18:31:29.795Z,9.07
2017-05-05T18:33:59.342Z,9.02
2017-05-05T18:36:29.835Z,8.17
2017-05-05T18:38:59.379Z,7.62
2017-05-05T18:41:28.918Z,8.50
2017-05-05T18:43:58.479Z,8.83
2017-05-05T18:46:28.018Z,7.62
2017-05-05T18:48:57.554Z,7.73
2017-05-05T18:51:27.083Z,7.47
2017-05-05T18:53:56.634Z,7.73
2017-05-05T18:56:26.906Z,7.52
2017-05-05T18:58:56.454Z,8.50
2017-05-05T19:01:26.730Z,7.65
2017-05-05T19:03:56.626Z,8.50
2017-05-05T19:06:26.166Z,8.43
2017-05-05T19:08:55.702Z,8.35
2017-05-05T19:11:26.013Z,7.60
2017-05-05T19:13:55.830Z,7.40
2017-05-05T19:16:26.126Z,7.92
2017-05-05T19:18:55.678Z,7.83
2017-05-05T19:21:25.286Z,8.13
2017-05-05T19:23:55.606Z,7.78
2017-05-05T19:26:25.882Z,7.10
2017-05-05T19:28:55.415Z,7.78
2017-05-05T19:31:25.914Z,7.25
2017-05-05T19:33:55.461Z,7.55
2017-05-05T19:36:25.862Z,8.98
2017-05-05T19:38:55.413Z,8.52
2017-05-05T19:41:24.962Z,9.65
2017-05-05T19:43:54.554Z,8.85
2017-05-05T19:46:24.142Z,8.02
2017-05-05T19:48:53.717Z,8.05
2017-05-05T19:51:23.501Z,7.23
2017-05-05T19:53:53.041Z,8.42
2017-05-05T19:56:22.574Z,7.70
2017-05-05T19:58:52.117Z,7.70
2017-05-05T20:01:21.665Z,7.40
2017-05-05T20:03:51.205Z,8.52
2017-05-05T20:06:20.769Z,9.22
2017-05-05T20:08:50.325Z,11.82
2017-05-05T20:11:19.889Z,11.82
2017-05-05T20:13:50.489Z,9.82
2017-05-05T20:16:20.289Z,8.62
2017-05-05T20:18:50.705Z,8.48
2017-05-05T20:21:20.236Z,11.12
2017-05-05T20:23:49.828Z,10.07
2017-05-05T20:26:19.577Z,7.73
2017-05-05T20:28:49.148Z,8.17
2017-05-05T20:31:19.601Z,8.12
2017-05-05T20:33:49.177Z,7.58
2017-05-05T20:36:18.904Z,7.27
2017-05-05T20:38:49.229Z,7.28
2017-05-05T20:41:18.929Z,7.93
2017-05-05T20:43:49.216Z,7.57
2017-05-05T20:46:18.785Z,8.65
2017-05-05T20:48:48.348Z,8.33
2017-05-05T20:53:56.596Z,8.33
2017-05-05T20:56:27.033Z,8.53
2017-05-05T20:58:56.573Z,9.12
2017-05-05T21:01:26.148Z,10.07
2017-05-05T21:03:55.729Z,9.00
2017-05-05T21:06:26.033Z,9.02
2017-05-05T21:08:55.644Z,9.58
2017-05-05T21:11:25.184Z,9.33
2017-05-05T21:13:54.800Z,9.12
2017-05-05T21:16:24.366Z,9.05
2017-05-05T21:18:53.941Z,10.52
2017-05-05T21:21:23.512Z,10.05
2017-05-05T21:23:53.101Z,10.13
2017-05-05T21:26:23.452Z,11.43
2017-05-05T21:28:53.036Z,12.43
2017-05-05T21:31:23.320Z,10.87
2017-05-05T21:33:52.880Z,12.47
2017-05-05T21:36:22.488Z,11.30
2017-05-05T21:38:52.035Z,10.53
2017-05-05T21:41:21.641Z,10.53
2017-05-05T21:43:51.211Z,11.48
2017-05-05T21:46:20.771Z,12.67
2017-05-05T21:48:50.376Z,13.58
2017-05-05T21:51:19.960Z,13.12
2017-05-05T21:53:49.832Z,12.03
2017-05-05T21:56:19.643Z,12.38
2017-05-05T21:58:49.217Z,12.13
2017-05-05T22:01:18.856Z,12.25
2017-05-05T22:03:48.468Z,11.78
2017-05-05T22:06:18.056Z,10.67
2017-05-05T22:08:48.352Z,10.68
2017-05-05T22:11:17.904Z,10.03
2017-05-05T22:13:47.772Z,12.25
2017-05-05T22:16:17.440Z,12.83
2017-05-05T22:18:47.003Z,12.30
2017-05-05T22:21:17.284Z,13.52
2017-05-05T22:23:46.831Z,12.63
2017-05-05T22:26:18.067Z,13.23
2017-05-05T22:28:48.336Z,12.97
2017-05-05T22:31:17.971Z,13.25
2017-05-05T22:33:47.543Z,12.72
2017-05-05T22:36:17.091Z,13.18
2017-05-05T22:38:46.623Z,13.05
2017-05-05T22:41:16.935Z,13.00
2017-05-05T22:43:47.211Z,14.13
2017-05-05T22:46:16.752Z,12.83
2017-05-05T22:48:46.291Z,14.03
2017-05-05T22:51:15.843Z,12.30
2017-05-05T22:53:45.371Z,13.45
2017-05-05T22:56:14.931Z,14.72
2017-05-05T22:58:44.443Z,14.02
2017-05-05T23:01:13.978Z,15.27
2017-05-05T23:03:43.603Z,14.68
2017-05-05T23:06:13.087Z,15.47
2017-05-05T23:08:42.623Z,13.82
2017-05-05T23:11:12.195Z,15.88
2017-05-05T23:13:41.743Z,15.88
2017-05-05T23:16:11.275Z,14.33
2017-05-05T23:18:40.910Z,15.08
2017-05-05T23:21:10.447Z,13.27
2017-05-05T23:23:40.751Z,13.53
2017-05-05T23:26:11.099Z,13.30
2017-05-05T23:28:41.402Z,15.58
2017-05-05T23:31:11.694Z,14.52
2017-05-05T23:33:41.367Z,15.03
2017-05-05T23:36:10.934Z,14.67
2017-05-05T23:41:02.595Z,15.30
2017-05-05T23:43:32.131Z,16.98
2017-05-05T23:46:01.699Z,17.55
2017-05-05T23:48:31.931Z,16.42
2017-05-05T23:51:02.070Z,17.58
2017-05-05T23:53:31.599Z,14.70
2017-05-05T23:56:01.223Z,15.72
2017-05-05T23:58:30.786Z,16.75
